createdAt,value
2022-08-07T00:00:26.000Z,18.42
2022-08-07T00:02:55.940Z,19.58
2022-08-07T00:05:24.103Z,19.30
2022-08-07T00:07:59.959Z,19.67
2022-08-07T00:10:30.517Z,17.75
2022-08-07T00:13:02.170Z,18.40
2022-08-07T00:18:19.750Z,18.33
2022-08-07T00:20:52.562Z,17.92
2022-08-07T00:23:21.804Z,18.02
2022-08-07T00:25:58.210Z,19.05
2022-08-07T00:28:33.319Z,18.35
2022-08-07T00:31:04.448Z,18.50
2022-08-07T00:36:01.855Z,18.35
2022-08-07T00:38:33.223Z,19.52
2022-08-07T00:41:01.792Z,22.58
2022-08-07T00:44:00.387Z,19.42
2022-08-07T00:46:17.361Z,18.88
2022-08-07T00:48:49.692Z,18.67
2022-08-07T00:53:50.829Z,16.52
2022-08-07T00:56:23.475Z,18.15
2022-08-07T00:58:58.330Z,17.23
2022-08-07T01:01:26.253Z,17.02
2022-08-07T01:03:59.935Z,15.95
2022-08-07T01:06:28.641Z,15.32
2022-08-07T01:09:01.216Z,16.13
2022-08-07T01:12:24.025Z,16.48
2022-08-07T01:14:17.907Z,16.90
2022-08-07T01:16:50.446Z,17.42
2022-08-07T01:19:20.044Z,16.73
2022-08-07T01:21:53.302Z,15.40
2022-08-07T01:24:21.944Z,15.52
2022-08-07T01:26:51.916Z,15.27
2022-08-07T01:29:22.101Z,15.43
2022-08-07T01:31:50.570Z,15.57
2022-08-07T01:34:19.113Z,15.13
2022-08-07T01:36:52.744Z,15.38
2022-08-07T01:39:26.852Z,15.45
2022-08-07T01:42:38.268Z,15.93
2022-08-07T01:44:57.584Z,15.55
2022-08-07T01:48:18.534Z,16.30
2022-08-07T01:50:14.182Z,16.15
2022-08-07T01:52:54.032Z,15.45
2022-08-07T01:55:26.852Z,14.48
2022-08-07T01:58:01.652Z,15.88
2022-08-07T02:00:45.277Z,16.10
2022-08-07T02:03:26.424Z,14.65
2022-08-07T02:06:01.071Z,15.23
2022-08-07T02:08:35.467Z,15.27
2022-08-07T02:11:06.335Z,15.55
2022-08-07T02:13:59.839Z,16.13
2022-08-07T02:16:28.703Z,15.40
2022-08-07T02:19:05.331Z,15.77
2022-08-07T02:21:55.276Z,15.48
2022-08-07T02:24:26.007Z,15.68
2022-08-07T02:26:58.434Z,15.07
2022-08-07T02:29:30.632Z,16.45
2022-08-07T02:32:00.177Z,14.98
2022-08-07T02:34:29.075Z,14.85
2022-08-07T02:36:59.960Z,15.35
2022-08-07T02:39:43.907Z,14.60
2022-08-07T02:42:19.448Z,15.55
2022-08-07T02:44:51.986Z,15.20
2022-08-07T02:47:23.489Z,15.15
2022-08-07T02:49:57.665Z,14.82
2022-08-07T02:52:34.938Z,14.98
2022-08-07T02:55:15.302Z,16.10
2022-08-07T02:58:02.763Z,14.75
2022-08-07T03:00:35.366Z,15.88
2022-08-07T03:05:37.840Z,14.35
2022-08-07T03:08:10.533Z,14.38
2022-08-07T03:10:46.307Z,14.52
2022-08-07T03:13:19.301Z,14.77
2022-08-07T03:15:56.742Z,15.52
2022-08-07T03:18:35.084Z,15.80
2022-08-07T03:21:08.180Z,15.75
2022-08-07T03:24:20.527Z,15.25
2022-08-07T03:26:32.380Z,14.32
2022-08-07T03:29:03.431Z,14.30
2022-08-07T03:31:42.562Z,14.00
2022-08-07T03:34:18.828Z,13.43
2022-08-07T03:36:51.110Z,13.13
2022-08-07T03:39:59.298Z,12.70
2022-08-07T03:42:11.273Z,13.95
2022-08-07T03:44:40.424Z,14.77
2022-08-07T03:47:13.679Z,14.50
2022-08-07T03:49:51.850Z,14.35
2022-08-07T03:52:26.352Z,13.70
2022-08-07T03:54:57.317Z,13.57
2022-08-07T03:58:34.045Z,13.10
2022-08-07T04:00:29.425Z,15.18
2022-08-07T04:02:59.051Z,14.15
2022-08-07T04:05:28.772Z,13.48
2022-08-07T04:08:11.420Z,14.10
2022-08-07T04:10:39.544Z,14.38
2022-08-07T04:13:15.163Z,13.80
2022-08-07T04:15:45.620Z,13.52
2022-08-07T04:18:58.500Z,13.15
2022-08-07T04:21:07.257Z,14.13
2022-08-07T04:23:43.457Z,13.15
2022-08-07T04:26:23.804Z,13.52
2022-08-07T04:28:58.536Z,13.63
2022-08-07T04:31:39.187Z,13.23
2022-08-07T04:34:16.975Z,13.63
2022-08-07T04:36:45.359Z,13.60
2022-08-07T04:39:17.595Z,14.80
2022-08-07T04:41:50.457Z,14.10
2022-08-07T04:44:20.151Z,13.10
2022-08-07T04:47:04.455Z,13.57
2022-08-07T04:50:03.565Z,13.07
2022-08-07T04:52:46.824Z,13.98
2022-08-07T04:58:12.542Z,12.88
2022-08-07T04:58:35.001Z,13.23
2022-08-07T05:01:18.042Z,12.68
2022-08-07T05:04:07.132Z,13.32
2022-08-07T05:06:43.497Z,13.60
2022-08-07T05:09:28.083Z,13.68
2022-08-07T05:12:26.963Z,13.98
2022-08-07T05:15:04.990Z,14.35
2022-08-07T05:17:52.203Z,14.50
2022-08-07T05:20:28.007Z,13.85
2022-08-07T05:23:05.075Z,14.23
2022-08-07T05:26:10.457Z,14.88
2022-08-07T05:28:26.771Z,14.13
2022-08-07T05:30:57.889Z,13.25
2022-08-07T05:33:29.874Z,13.65
2022-08-07T05:35:57.960Z,13.30
2022-08-07T05:39:00.867Z,13.98
2022-08-07T05:41:17.017Z,14.38
2022-08-07T05:44:12.191Z,13.15
2022-08-07T05:46:39.286Z,14.10
2022-08-07T05:49:12.197Z,14.05
2022-08-07T05:51:40.957Z,13.63
2022-08-07T05:54:30.051Z,14.10
2022-08-07T05:56:59.695Z,12.95
2022-08-07T05:59:28.515Z,13.07
2022-08-07T06:02:08.864Z,14.82
2022-08-07T06:04:42.905Z,13.70
2022-08-07T06:07:22.905Z,12.98
2022-08-07T06:10:15.076Z,13.77
2022-08-07T06:12:43.384Z,12.95
2022-08-07T06:15:15.970Z,13.18
2022-08-07T06:17:53.918Z,13.20
2022-08-07T06:20:25.429Z,12.77
2022-08-07T06:23:45.781Z,12.55
2022-08-07T06:26:02.401Z,12.48
2022-08-07T06:28:30.180Z,13.55
2022-08-07T06:30:58.543Z,12.70
2022-08-07T06:33:27.201Z,15.05
2022-08-07T06:36:06.372Z,13.02
2022-08-07T06:38:58.778Z,13.40
2022-08-07T06:42:02.656Z,12.23
2022-08-07T06:44:27.340Z,12.90
2022-08-07T06:47:10.282Z,12.88
2022-08-07T06:49:52.305Z,14.45
2022-08-07T06:52:32.023Z,13.60
2022-08-07T06:55:32.147Z,13.10
2022-08-07T06:57:57.068Z,14.30
2022-08-07T07:00:27.530Z,12.57
2022-08-07T07:02:57.476Z,12.68
2022-08-07T07:06:05.421Z,13.45
2022-08-07T07:08:18.648Z,12.85
2022-08-07T07:10:56.375Z,12.65
2022-08-07T07:13:43.590Z,11.88
2022-08-07T07:16:21.389Z,13.07
2022-08-07T07:18:54.476Z,12.18
2022-08-07T07:21:40.488Z,13.40
2022-08-07T07:24:17.211Z,13.60
2022-08-07T07:26:51.920Z,13.63
2022-08-07T07:29:56.535Z,12.43
2022-08-07T07:32:14.656Z,12.10
2022-08-07T07:34:46.487Z,12.38
2022-08-07T07:37:45.520Z,11.50
2022-08-07T07:40:15.291Z,12.98
2022-08-07T07:42:50.916Z,11.93
2022-08-07T07:46:37.765Z,12.70
2022-08-07T07:48:24.198Z,11.55
2022-08-07T07:51:07.804Z,12.52
2022-08-07T07:53:48.153Z,12.75
2022-08-07T07:56:30.207Z,12.82
2022-08-07T07:59:01.601Z,11.73
2022-08-07T08:02:02.742Z,11.13
2022-08-07T08:04:20.278Z,11.70
2022-08-07T08:06:54.958Z,12.75
2022-08-07T08:09:29.472Z,11.88
2022-08-07T08:12:03.872Z,11.57
2022-08-07T08:14:34.433Z,12.57
2022-08-07T08:17:32.400Z,11.80
2022-08-07T08:20:18.574Z,12.20
2022-08-07T08:23:08.190Z,11.48
2022-08-07T08:25:56.715Z,11.77
2022-08-07T08:28:37.901Z,11.80
2022-08-07T08:31:15.584Z,10.80
2022-08-07T08:33:49.786Z,12.00
2022-08-07T08:36:29.681Z,11.57
2022-08-07T08:39:01.920Z,11.13
2022-08-07T08:41:59.182Z,11.05
2022-08-07T08:44:38.324Z,11.73
2022-08-07T08:47:19.645Z,13.98
2022-08-07T08:50:05.715Z,11.80
2022-08-07T08:52:40.835Z,11.18
2022-08-07T08:55:53.877Z,11.30
2022-08-07T08:58:28.594Z,10.80
2022-08-07T09:01:15.008Z,10.48
2022-08-07T09:03:55.329Z,10.45
2022-08-07T09:06:36.770Z,10.13
2022-08-07T09:09:20.982Z,11.38
2022-08-07T09:12:20.044Z,9.65
2022-08-07T09:16:21.702Z,10.60
2022-08-07T09:18:16.835Z,10.02
2022-08-07T09:21:03.961Z,9.65
2022-08-07T09:24:31.343Z,8.68
2022-08-07T09:26:40.542Z,8.80
2022-08-07T09:30:06.308Z,9.32
2022-08-07T09:32:23.855Z,9.50
2022-08-07T09:36:05.426Z,8.97
2022-08-07T09:38:10.314Z,9.18
2022-08-07T09:40:52.029Z,8.27
2022-08-07T09:44:03.666Z,8.52
2022-08-07T09:47:52.544Z,8.70
2022-08-07T09:49:59.758Z,8.45
2022-08-07T09:52:33.858Z,8.15
2022-08-07T09:55:16.903Z,7.82
2022-08-07T09:58:08.668Z,8.32
2022-08-07T10:01:02.922Z,7.88
2022-08-07T10:04:07.015Z,7.35
2022-08-07T10:06:56.853Z,7.72
2022-08-07T10:10:01.148Z,7.85
2022-08-07T10:12:52.910Z,7.40
2022-08-07T10:15:44.492Z,7.25
2022-08-07T10:18:27.064Z,7.43
2022-08-07T10:21:50.779Z,6.72
2022-08-07T10:24:15.004Z,6.80
2022-08-07T10:26:58.738Z,7.13
2022-08-07T10:29:51.416Z,6.43
2022-08-07T10:32:51.394Z,6.95
2022-08-07T10:35:55.425Z,7.88
2022-08-07T10:38:36.031Z,6.80
2022-08-07T10:41:51.261Z,6.65
2022-08-07T10:44:28.790Z,7.45
2022-08-07T10:47:18.982Z,6.38
2022-08-07T10:50:04.383Z,6.85
2022-08-07T10:52:42.670Z,6.50
2022-08-07T10:55:37.800Z,6.10
2022-08-07T10:58:36.635Z,6.53
2022-08-07T11:01:23.768Z,6.35
2022-08-07T11:04:16.502Z,5.65
2022-08-07T11:06:54.992Z,6.30
2022-08-07T11:10:10.093Z,6.03
2022-08-07T11:12:31.576Z,6.07
2022-08-07T11:15:14.559Z,5.93
2022-08-07T11:17:53.882Z,5.68
2022-08-07T11:20:27.379Z,4.85
2022-08-07T11:23:09.779Z,5.00
2022-08-07T11:25:48.303Z,4.75
2022-08-07T11:28:24.680Z,4.93
2022-08-07T11:30:57.816Z,5.43
2022-08-07T11:33:53.961Z,4.68
2022-08-07T11:36:41.803Z,5.28
2022-08-07T11:39:19.536Z,4.90
2022-08-07T11:42:02.050Z,4.97
2022-08-07T11:44:52.376Z,5.18
2022-08-07T11:47:55.952Z,4.15
2022-08-07T11:50:44.573Z,4.07
2022-08-07T11:53:43.068Z,4.30
2022-08-07T11:56:37.597Z,4.35
2022-08-07T12:02:20.792Z,3.90
2022-08-07T12:05:15.123Z,3.95
2022-08-07T12:07:53.490Z,6.93
2022-08-07T12:10:35.999Z,4.40
2022-08-07T12:13:17.022Z,4.25
2022-08-07T12:16:06.619Z,4.50
2022-08-07T12:18:45.427Z,3.65
2022-08-07T12:21:55.846Z,3.70
2022-08-07T12:24:38.081Z,3.90
2022-08-07T12:27:14.879Z,3.65
2022-08-07T12:29:51.855Z,3.30
2022-08-07T12:32:28.533Z,3.30
2022-08-07T12:35:00.984Z,3.33
2022-08-07T12:38:10.201Z,4.60
2022-08-07T12:44:01.576Z,3.47
2022-08-07T12:46:26.224Z,2.85
2022-08-07T12:49:10.115Z,3.33
2022-08-07T12:52:14.134Z,2.85
2022-08-07T12:54:54.303Z,3.00
2022-08-07T12:57:39.192Z,3.47
2022-08-07T13:00:41.741Z,2.50
2022-08-07T13:03:56.292Z,3.13
2022-08-07T13:07:00.442Z,2.90
2022-08-07T13:10:21.438Z,3.00
2022-08-07T13:12:51.628Z,3.38
2022-08-07T13:15:29.490Z,2.30
2022-08-07T13:18:26.423Z,2.83
2022-08-07T13:21:02.623Z,2.67
2022-08-07T13:24:00.737Z,2.33
2022-08-07T13:26:34.802Z,4.18
2022-08-07T13:29:13.634Z,2.83
2022-08-07T13:31:57.291Z,4.65
2022-08-07T13:34:36.601Z,2.50
2022-08-07T13:37:20.556Z,2.53
2022-08-07T13:40:36.762Z,2.30
2022-08-07T13:42:49.685Z,3.22
2022-08-07T13:46:11.893Z,2.75
2022-08-07T13:48:27.407Z,3.00
2022-08-07T13:51:02.185Z,2.63
2022-08-07T13:54:00.091Z,3.00
2022-08-07T13:56:35.864Z,2.50
2022-08-07T13:59:13.535Z,2.40
2022-08-07T14:02:03.606Z,2.40
2022-08-07T14:04:36.932Z,2.60
2022-08-07T14:07:09.574Z,2.20
2022-08-07T14:10:12.239Z,2.30
2022-08-07T14:12:41.642Z,2.10
2022-08-07T14:15:19.211Z,2.25
2022-08-07T14:18:24.113Z,2.30
2022-08-07T14:20:49.054Z,2.10
2022-08-07T14:23:31.401Z,2.35
2022-08-07T14:26:29.670Z,2.22
2022-08-07T14:29:05.979Z,2.45
2022-08-07T14:31:42.733Z,2.47
2022-08-07T14:34:20.259Z,2.33
2022-08-07T14:36:55.943Z,2.10
2022-08-07T14:40:17.597Z,2.30
2022-08-07T14:42:19.955Z,2.30
2022-08-07T14:47:46.007Z,2.60
2022-08-07T14:50:20.397Z,2.75
2022-08-07T14:52:50.099Z,6.38
2022-08-07T14:55:19.523Z,2.28
2022-08-07T14:57:58.631Z,2.80
2022-08-07T15:00:31.060Z,2.83
2022-08-07T15:03:00.273Z,4.10
2022-08-07T15:05:55.122Z,3.17
2022-08-07T15:08:35.214Z,2.13
2022-08-07T15:11:53.290Z,2.50
2022-08-07T19:32:44.278Z,2.83
2022-08-07T19:35:16.193Z,2.70
2022-08-07T19:37:57.363Z,2.78
2022-08-07T19:40:30.845Z,2.88
2022-08-07T19:42:59.705Z,3.05
2022-08-07T19:46:04.917Z,3.10
2022-08-07T19:48:24.127Z,3.38
2022-08-07T19:50:53.902Z,3.10
2022-08-07T19:54:32.670Z,3.08
2022-08-07T19:57:50.909Z,3.45
2022-08-07T19:59:02.582Z,3.17
2022-08-07T20:01:55.844Z,2.95
2022-08-07T20:04:31.425Z,2.80
2022-08-07T20:07:09.197Z,3.20
2022-08-07T20:10:36.677Z,3.10
2022-08-07T20:12:35.961Z,3.40
2022-08-07T20:15:09.707Z,3.15
2022-08-07T20:18:01.835Z,3.42
2022-08-07T20:20:35.650Z,3.35
2022-08-07T20:23:11.014Z,3.10
2022-08-07T20:25:55.146Z,2.95
2022-08-07T20:28:29.975Z,3.45
2022-08-07T20:31:00.279Z,3.08
2022-08-07T20:33:37.545Z,3.40
2022-08-07T20:36:09.736Z,3.50
2022-08-07T20:38:53.471Z,3.60
2022-08-07T20:41:34.010Z,3.60
2022-08-07T20:44:12.590Z,3.53
2022-08-07T20:46:44.886Z,3.60
2022-08-07T20:50:00.447Z,3.65
2022-08-07T20:52:16.590Z,3.50
2022-08-07T20:57:25.929Z,3.30
2022-08-07T21:00:06.636Z,3.60
2022-08-07T21:02:57.638Z,3.28
2022-08-07T21:05:54.418Z,3.72
2022-08-07T21:08:37.170Z,3.42
2022-08-07T21:11:10.812Z,3.55
2022-08-07T21:13:57.420Z,3.60
2022-08-07T21:16:37.701Z,3.92
2022-08-07T21:19:15.943Z,3.60
2022-08-07T21:21:56.919Z,4.20
2022-08-07T21:24:33.705Z,3.40
2022-08-07T21:27:12.571Z,3.92
2022-08-07T21:29:52.998Z,3.88
2022-08-07T21:32:48.907Z,4.40
2022-08-07T21:35:18.542Z,3.88
2022-08-07T21:38:13.712Z,4.20
2022-08-07T21:40:51.232Z,4.38
2022-08-07T21:43:26.086Z,4.30
2022-08-07T21:46:25.159Z,3.92
2022-08-07T21:49:15.081Z,4.50
2022-08-07T21:51:58.592Z,4.20
2022-08-07T21:54:37.448Z,4.10
2022-08-07T21:57:40.004Z,4.03
2022-08-07T22:00:22.422Z,4.13
2022-08-07T22:03:06.178Z,4.78
2022-08-07T22:05:46.138Z,4.60
2022-08-07T22:08:19.692Z,6.20
2022-08-07T22:10:50.814Z,4.35
2022-08-07T22:13:24.254Z,4.43
2022-08-07T22:16:43.462Z,4.22
2022-08-07T22:19:08.161Z,4.40
2022-08-07T22:22:05.115Z,4.32
2022-08-07T22:24:37.116Z,4.55
2022-08-07T22:27:11.908Z,4.35
2022-08-07T22:29:48.197Z,4.65
2022-08-07T22:32:25.285Z,4.00
2022-08-07T22:34:55.525Z,4.10
2022-08-07T22:38:02.975Z,4.15
2022-08-07T22:40:29.624Z,4.63
2022-08-07T22:43:03.891Z,4.32
2022-08-07T22:46:21.341Z,4.07
2022-08-07T22:48:56.286Z,4.03
2022-08-07T22:51:51.979Z,4.47
2022-08-07T22:54:48.911Z,4.95
2022-08-07T22:57:42.493Z,4.80
2022-08-07T23:00:15.952Z,4.47
2022-08-07T23:03:09.460Z,4.50
2022-08-07T23:06:10.234Z,4.38
2022-08-07T23:08:58.517Z,4.70
2022-08-07T23:11:59.272Z,4.45
2022-08-07T23:14:38.819Z,4.53
2022-08-07T23:17:27.232Z,5.45
2022-08-07T23:20:40.527Z,4.90
2022-08-07T23:24:05.086Z,5.05
2022-08-07T23:26:23.435Z,5.25
2022-08-07T23:29:43.643Z,5.10
2022-08-07T23:34:22.101Z,5.05
2022-08-07T23:35:16.795Z,5.68
2022-08-07T23:38:19.232Z,5.20
2022-08-07T23:41:33.059Z,5.05
2022-08-07T23:44:24.728Z,4.97
2022-08-07T23:47:20.846Z,5.40
2022-08-07T23:50:05.335Z,4.88
2022-08-07T23:53:00.535Z,5.05
2022-08-07T23:55:47.153Z,5.25
2022-08-07T23:58:26.807Z,4.95
